Time;durP1;ratioP1;P1;durP2;ratioP2;P2;SDS_P1;SDS_P2;PMS_P1;PMS_P2;Temp;Humidity;BMP_temperature;BMP_pressure;BME280_temperature;BME280_humidity;BME280_pressure;Samples;Min_cycle;Max_cycle;Signal;HPM_P1;HPM_P2
2022/01/15 00:01:49;;;;;;;3.45;1.75;;;;;;;1.79;56.84;98621.56;1690433;84;21040;-77
2022/01/15 00:04:15;;;;;;;2.77;1.52;;;;;;;1.75;56.74;98626.64;1687696;84;21031;-77
2022/01/15 00:06:42;;;;;;;2.10;0.80;;;;;;;1.71;56.51;98637.24;1693535;84;21431;-78
2022/01/15 00:09:08;;;;;;;5.53;1.90;;;;;;;1.68;55.94;98632.73;1703873;84;20996;-79
2022/01/15 00:11:35;;;;;;;6.45;2.17;;;;;;;1.71;56.22;98646.82;1691604;84;21973;-78
2022/01/15 00:14:23;;;;;;;14.07;9.03;;;;;;;1.71;55.94;98645.05;1677319;83;20977;-77
2022/01/15 00:16:49;;;;;;;3.72;1.70;;;;;;;1.71;55.94;98639.84;1691261;84;21057;-80
2022/01/15 00:19:13;;;;;;;6.25;4.08;;;;;;;1.70;55.64;98653.80;1689749;84;21143;-80
2022/01/15 00:21:40;;;;;;;3.60;1.65;;;;;;;1.73;55.37;98627.55;1695243;84;21059;-78
2022/01/15 00:24:06;;;;;;;4.10;1.30;;;;;;;1.76;55.26;98643.91;1697719;84;21935;-79
2022/01/15 00:26:33;;;;;;;2.15;1.10;;;;;;;1.79;55.48;98641.08;1681946;84;21002;-79
2022/01/15 00:29:00;;;;;;;5.80;2.92;;;;;;;1.79;55.66;98660.60;1692774;84;21030;-78
2022/01/15 00:31:27;;;;;;;3.45;1.10;;;;;;;1.76;55.52;98660.83;1695176;84;21000;-79
2022/01/15 00:33:54;;;;;;;5.80;1.00;;;;;;;1.77;55.40;98646.88;1704391;83;21088;-78
2022/01/15 00:36:20;;;;;;;2.35;0.88;;;;;;;1.76;55.22;98656.92;1709555;82;21813;-78
2022/01/15 00:38:47;;;;;;;2.62;1.00;;;;;;;1.77;55.32;98667.69;1704872;83;21101;-78
2022/01/15 00:41:16;;;;;;;1.92;0.70;;;;;;;1.76;55.73;98685.55;1706379;84;21427;-79
2022/01/15 00:43:42;;;;;;;2.22;0.62;;;;;;;1.72;56.09;98677.94;1707098;82;20971;-79
2022/01/15 00:46:09;;;;;;;4.03;0.90;;;;;;;1.68;56.43;98689.98;1712479;82;21068;-78
2022/01/15 00:48:35;;;;;;;2.80;0.62;;;;;;;1.62;56.85;98679.53;1702855;84;21648;-78
2022/01/15 00:51:02;;;;;;;2.50;0.70;;;;;;;1.60;57.22;98697.49;1707450;84;21298;-78
2022/01/15 00:53:28;;;;;;;3.10;0.80;;;;;;;1.52;57.70;98690.21;1703850;84;21059;-78
2022/01/15 00:55:54;;;;;;;2.60;0.70;;;;;;;1.46;57.97;98698.45;1693123;84;20968;-78
2022/01/15 00:58:21;;;;;;;2.72;0.70;;;;;;;1.40;58.64;98700.17;1704517;82;21068;-78
2022/01/15 01:00:47;;;;;;;4.75;0.90;;;;;;;1.33;59.04;98714.05;1711187;83;21851;-78
2022/01/15 01:03:13;;;;;;;3.90;1.10;;;;;;;1.29;59.50;98718.28;1709694;82;20964;-79
2022/01/15 01:05:41;;;;;;;3.98;1.47;;;;;;;1.26;59.90;98718.03;1703512;84;21035;-78
2022/01/15 01:08:07;;;;;;;2.52;0.90;;;;;;;1.21;60.35;98730.97;1683889;84;21554;-79
2022/01/15 01:10:55;;;;;;;5.97;1.05;;;;;;;1.20;61.11;98728.00;1706686;84;21020;-79
2022/01/15 01:20:04;;;;;;;3.75;1.00;;;;;;;1.17;61.43;98715.22;1705782;84;22681;-79
2022/01/15 01:24:09;;;;;;;3.22;1.47;;;;;;;0.94;62.82;98737.06;1665702;83;21085;-77
2022/01/15 01:29:28;;;;;;;3.12;0.95;;;;;;;0.94;65.04;98727.97;1700592;84;21097;-78
2022/01/15 01:31:58;;;;;;;2.22;0.90;;;;;;;0.90;65.83;98729.58;1676979;84;21035;-79
2022/01/15 01:34:21;;;;;;;3.08;0.98;;;;;;;0.80;65.73;98734.09;1689274;84;21008;-78
2022/01/15 01:36:58;;;;;;;4.03;1.10;;;;;;;0.75;65.51;98734.84;1704996;82;21071;-78
2022/01/15 01:39:20;;;;;;;2.30;0.80;;;;;;;0.73;65.21;98743.67;1670957;83;21845;-80
2022/01/15 01:42:04;;;;;;;4.10;1.00;;;;;;;0.71;64.91;98738.58;1698712;83;20964;-76
2022/01/15 01:44:18;;;;;;;2.62;0.90;;;;;;;0.71;64.54;98744.25;1673767;84;21046;-78
2022/01/15 01:46:50;;;;;;;3.47;0.88;;;;;;;0.74;64.33;98753.13;1672001;84;20996;-78
2022/01/15 01:49:13;;;;;;;3.15;0.95;;;;;;;0.76;63.99;98743.00;1657439;85;21087;-79
2022/01/15 01:51:40;;;;;;;2.50;0.80;;;;;;;0.76;63.49;98744.77;1696660;82;21836;-78
2022/01/15 01:54:10;;;;;;;5.33;1.05;;;;;;;0.79;63.06;98757.58;1701021;83;21058;-78
2022/01/15 01:56:38;;;;;;;2.75;0.90;;;;;;;0.80;62.41;98742.35;1702694;81;20979;-79
2022/01/15 01:59:06;;;;;;;3.85;1.00;;;;;;;0.84;61.71;98752.90;1666045;86;21447;-79
2022/01/15 02:01:33;;;;;;;3.20;0.88;;;;;;;0.89;61.68;98772.94;1679878;84;20975;-79
2022/01/15 02:04:00;;;;;;;3.10;0.70;;;;;;;0.86;61.89;98766.63;1695432;84;22553;-77
2022/01/15 02:06:26;;;;;;;5.92;0.90;;;;;;;0.79;62.70;98771.88;1693966;84;21559;-75
2022/01/15 02:08:55;;;;;;;2.70;0.90;;;;;;;0.78;63.10;98783.20;1668171;84;21008;-78
2022/01/15 02:11:24;;;;;;;2.70;0.75;;;;;;;0.74;63.42;98786.91;1696380;84;21020;-78
2022/01/15 02:13:52;;;;;;;4.35;0.72;;;;;;;0.70;63.81;98794.09;1696050;84;21391;-78
2022/01/15 02:16:18;;;;;;;1.87;0.80;;;;;;;0.64;64.32;98797.06;1712436;83;22506;-77
2022/01/15 02:18:45;;;;;;;1.95;0.82;;;;;;;0.62;64.75;98798.94;1683187;84;21391;-79
2022/01/15 02:23:46;;;;;;;5.83;1.00;;;;;;;0.64;65.08;98812.66;1690243;84;21028;-78
2022/01/15 02:26:23;;;;;;;3.05;0.80;;;;;;;0.62;65.33;98807.20;1680587;84;22633;-78
2022/01/15 02:28:59;;;;;;;2.02;0.70;;;;;;;0.61;65.40;98799.87;1671650;84;21880;-79
2022/01/15 02:31:27;;;;;;;1.27;0.60;;;;;;;0.62;65.45;98807.20;1676685;84;21478;-78
2022/01/15 02:33:55;;;;;;;3.77;1.02;;;;;;;0.63;65.42;98808.86;1697718;84;20983;-78
2022/01/15 02:36:32;;;;;;;1.47;0.70;;;;;;;0.61;65.42;98815.92;1670737;85;20985;-79
2022/01/15 02:38:58;;;;;;;4.05;0.95;;;;;;;0.61;65.51;98825.85;1695231;84;21078;-77
2022/01/15 02:41:34;;;;;;;3.45;0.80;;;;;;;0.59;65.46;98825.13;1684676;84;21827;-79
2022/01/15 02:44:04;;;;;;;2.55;0.55;;;;;;;0.59;65.48;98830.31;1687097;84;21466;-78
2022/01/15 02:49:01;;;;;;;1.98;0.68;;;;;;;0.55;65.64;98832.25;1687601;84;21487;-78
2022/01/15 02:51:31;;;;;;;2.85;0.53;;;;;;;0.54;65.70;98841.45;1681088;84;21056;-78
2022/01/15 02:53:57;;;;;;;3.08;0.85;;;;;;;0.52;65.71;98847.21;1691987;84;21535;-79
2022/01/15 02:56:27;;;;;;;2.05;0.60;;;;;;;0.52;65.68;98846.74;1689237;83;21443;-78
2022/01/15 02:58:54;;;;;;;3.77;0.60;;;;;;;0.54;65.57;98842.75;1689845;84;20948;-79
2022/01/15 03:01:20;;;;;;;2.17;0.60;;;;;;;0.54;65.36;98844.05;1675612;83;21155;-77
2022/01/15 03:03:47;;;;;;;1.80;0.60;;;;;;;0.54;65.20;98837.09;1699773;84;21553;-78
2022/01/15 03:06:15;;;;;;;3.72;0.82;;;;;;;0.57;65.07;98844.67;1653192;85;22514;-77
2022/01/15 03:08:44;;;;;;;1.60;0.60;;;;;;;0.59;64.92;98850.27;1695762;84;21103;-78
2022/01/15 03:11:12;;;;;;;1.50;0.60;;;;;;;0.57;64.79;98846.44;1678806;84;20968;-78
2022/01/15 03:13:40;;;;;;;3.15;0.60;;;;;;;0.55;64.49;98845.25;1694233;83;21076;-78
2022/01/15 03:16:09;;;;;;;2.65;0.60;;;;;;;0.55;64.08;98856.10;1672772;85;21075;-78
2022/01/15 03:18:35;;;;;;;1.25;0.50;;;;;;;0.55;63.87;98856.94;1699612;84;21828;-77
2022/01/15 03:21:01;;;;;;;2.70;0.72;;;;;;;0.55;63.19;98847.02;1680449;84;21012;-78
2022/01/15 03:23:28;;;;;;;4.40;0.70;;;;;;;0.59;62.98;98845.08;1694532;83;21008;-78
2022/01/15 03:25:54;;;;;;;1.52;0.70;;;;;;;0.61;62.45;98851.00;1696903;84;20996;-79
2022/01/15 03:28:21;;;;;;;2.00;0.62;;;;;;;0.61;61.65;98856.20;1688461;83;21028;-78
2022/01/15 03:30:48;;;;;;;2.35;0.78;;;;;;;0.65;61.08;98858.95;1681581;84;21848;-79
2022/01/15 03:33:15;;;;;;;2.72;0.80;;;;;;;0.70;60.54;98869.91;1684969;84;20968;-76
2022/01/15 03:35:43;;;;;;;3.60;0.88;;;;;;;0.77;60.31;98872.47;1703459;83;21526;-78
2022/01/15 03:38:09;;;;;;;2.85;0.62;;;;;;;0.83;60.33;98874.69;1687313;84;21028;-78
2022/01/15 03:40:36;;;;;;;2.98;0.75;;;;;;;0.86;60.11;98858.89;1684854;84;20967;-78
2022/01/15 03:43:04;;;;;;;1.80;0.70;;;;;;;0.86;59.70;98868.81;1702074;84;21798;-77
2022/01/15 03:45:32;;;;;;;1.57;0.60;;;;;;;0.94;59.88;98876.13;1692075;84;21123;-78
2022/01/15 03:47:58;;;;;;;2.47;0.90;;;;;;;0.94;59.90;98864.44;1689169;84;21011;-78
2022/01/15 03:50:25;;;;;;;2.62;1.40;;;;;;;0.96;60.31;98874.73;1680690;84;21005;-78
2022/01/15 03:52:53;;;;;;;3.20;0.90;;;;;;;0.97;60.49;98879.03;1692351;83;22291;-77
2022/01/15 03:55:20;;;;;;;2.47;1.35;;;;;;;0.97;60.89;98888.95;1685695;84;21816;-79
2022/01/15 03:57:46;;;;;;;2.83;1.07;;;;;;;0.95;61.15;98902.50;1692950;83;20972;-75
2022/01/15 04:00:20;;;;;;;2.35;1.00;;;;;;;0.93;61.54;98897.86;1683038;84;20979;-77
2022/01/15 04:02:48;;;;;;;3.87;0.80;;;;;;;0.90;61.71;98899.37;1691580;83;21122;-77
2022/01/15 04:05:15;;;;;;;2.52;0.70;;;;;;;0.91;62.04;98906.70;1698486;82;21428;-77
2022/01/15 04:07:41;;;;;;;4.67;1.20;;;;;;;0.85;62.28;98910.04;1687387;84;21870;-77
2022/01/15 04:10:10;;;;;;;2.47;0.60;;;;;;;0.84;62.48;98916.64;1688634;84;21020;-78
2022/01/15 04:12:36;;;;;;;2.47;0.78;;;;;;;0.81;62.68;98918.97;1665118;84;21106;-78
2022/01/15 04:15:05;;;;;;;2.27;0.88;;;;;;;0.78;62.97;98906.65;1684417;84;20984;-78
2022/01/15 04:17:31;;;;;;;3.33;1.00;;;;;;;0.75;63.09;98894.66;1688143;84;20887;-77
2022/01/15 04:19:58;;;;;;;3.33;1.05;;;;;;;0.74;63.10;98915.55;1686807;84;22486;-78
2022/01/15 04:22:25;;;;;;;2.92;0.88;;;;;;;0.75;63.22;98910.25;1677090;84;21067;-78
2022/01/15 04:24:52;;;;;;;2.80;1.07;;;;;;;0.74;63.03;98920.28;1695310;84;20967;-78
2022/01/15 04:27:22;;;;;;;3.42;0.90;;;;;;;0.76;63.06;98926.21;1668677;84;21040;-78
2022/01/15 04:29:47;;;;;;;2.80;0.75;;;;;;;0.73;63.05;98924.28;1688561;83;21059;-77
2022/01/15 04:32:13;;;;;;;3.55;0.70;;;;;;;0.76;63.06;98929.27;1697468;84;22200;-78
2022/01/15 04:34:40;;;;;;;3.60;0.90;;;;;;;0.75;62.99;98939.30;1693435;84;21067;-78
2022/01/15 04:37:13;;;;;;;2.45;0.90;;;;;;;0.76;63.01;98938.38;1680714;84;21079;-79
2022/01/15 04:39:35;;;;;;;2.45;0.82;;;;;;;0.75;63.09;98939.30;1677852;84;20976;-78
2022/01/15 04:42:02;;;;;;;6.12;1.07;;;;;;;0.73;63.09;98937.27;1694783;84;20945;-77
2022/01/15 04:44:28;;;;;;;3.15;1.00;;;;;;;0.75;63.02;98952.30;1696207;84;21829;-77
2022/01/15 04:46:55;;;;;;;5.10;1.27;;;;;;;0.72;63.12;98949.44;1696839;84;21474;-78
2022/01/15 04:49:21;;;;;;;3.37;0.88;;;;;;;0.71;63.14;98959.92;1693117;84;21506;-78
2022/01/15 04:51:48;;;;;;;5.35;1.05;;;;;;;0.67;63.34;98961.02;1665802;84;21478;-78
2022/01/15 04:54:14;;;;;;;4.25;1.17;;;;;;;0.63;63.53;98972.08;1699840;83;21023;-78
2022/01/15 04:56:41;;;;;;;3.12;1.10;;;;;;;0.58;63.80;98972.84;1692820;83;21789;-78
2022/01/15 04:59:07;;;;;;;4.00;1.00;;;;;;;0.55;64.01;98986.00;1704692;84;21090;-76
2022/01/15 05:01:34;;;;;;;2.10;0.62;;;;;;;0.53;64.27;98988.69;1685426;84;20956;-77
2022/01/15 05:04:00;;;;;;;3.47;0.70;;;;;;;0.52;64.35;98987.03;1672470;84;21534;-78
2022/01/15 05:06:26;;;;;;;3.22;1.00;;;;;;;0.51;64.47;98989.72;1686116;84;21417;-78
2022/01/15 05:09:02;;;;;;;3.12;0.80;;;;;;;0.51;64.42;98991.86;1699441;84;22484;-78
2022/01/15 05:11:30;;;;;;;3.52;0.82;;;;;;;0.53;64.27;98994.36;1685785;84;21007;-77
2022/01/15 05:13:49;;;;;;;3.02;0.80;;;;;;;0.54;64.07;98998.16;1700665;83;21466;-78
2022/01/15 05:16:16;;;;;;;3.77;0.80;;;;;;;0.59;63.93;99004.39;1679523;84;21095;-77
2022/01/15 05:18:42;;;;;;;4.25;0.88;;;;;;;0.61;63.62;98998.62;1702532;83;21032;-78
2022/01/15 05:21:09;;;;;;;2.92;0.90;;;;;;;0.65;63.37;98988.41;1679166;84;21830;-78
2022/01/15 05:23:35;;;;;;;3.12;0.85;;;;;;;0.71;63.08;98985.91;1690046;84;21009;-77
2022/01/15 05:26:02;;;;;;;3.02;0.90;;;;;;;0.74;62.69;98998.24;1683148;84;21027;-78
2022/01/15 05:28:28;;;;;;;3.27;0.70;;;;;;;0.77;62.41;99013.67;1689983;83;21051;-78
2022/01/15 05:30:55;;;;;;;3.35;1.12;;;;;;;0.81;62.14;99016.44;1693806;83;21007;-79
2022/01/15 05:33:22;;;;;;;2.95;0.70;;;;;;;0.85;62.12;99010.11;1681226;84;21848;-78
2022/01/15 05:35:48;;;;;;;4.17;0.60;;;;;;;0.90;61.74;99017.64;1697769;84;21003;-78
2022/01/15 05:38:14;;;;;;;3.92;0.85;;;;;;;0.94;61.57;99018.28;1682629;84;21092;-78
2022/01/15 05:40:41;;;;;;;2.00;0.70;;;;;;;0.96;61.43;99022.45;1681751;84;21032;-78
2022/01/15 05:43:07;;;;;;;1.75;0.60;;;;;;;1.00;61.21;99007.52;1688937;84;21059;-78
2022/01/15 05:45:34;;;;;;;2.62;1.00;;;;;;;1.03;61.03;99014.65;1690620;84;21815;-78
2022/01/15 05:48:00;;;;;;;3.40;1.00;;;;;;;1.07;60.77;99004.91;1668566;84;21467;-78
2022/01/15 05:50:27;;;;;;;2.20;1.00;;;;;;;1.09;60.54;99013.44;1678937;84;21031;-77
2022/01/15 05:52:53;;;;;;;11.05;6.10;;;;;;;1.10;60.46;99008.14;1682215;84;21383;-78
2022/01/15 05:55:20;;;;;;;3.45;1.65;;;;;;;1.13;60.20;99027.45;1682039;84;21028;-77
2022/01/15 05:57:47;;;;;;;4.75;2.20;;;;;;;1.15;59.93;99032.08;1687419;84;22768;-79
2022/01/15 06:00:14;;;;;;;6.08;3.50;;;;;;;1.19;59.85;99029.31;1694937;84;21522;-77
2022/01/15 06:02:41;;;;;;;4.60;1.45;;;;;;;1.21;59.77;99024.84;1672024;85;21483;-77
2022/01/15 06:05:09;;;;;;;2.75;1.10;;;;;;;1.23;59.84;99029.47;1669892;84;21518;-77
2022/01/15 06:07:35;;;;;;;2.95;1.10;;;;;;;1.22;59.54;99032.54;1683701;84;21428;-78
2022/01/15 06:10:03;;;;;;;1.60;0.90;;;;;;;1.23;59.60;99045.08;1691797;84;21849;-78
2022/01/15 06:12:32;;;;;;;3.33;1.52;;;;;;;1.25;59.53;99040.61;1663038;84;21075;-77
2022/01/15 06:14:59;;;;;;;4.42;1.22;;;;;;;1.24;59.43;99042.38;1683298;84;21024;-77
2022/01/15 06:17:26;;;;;;;5.08;2.17;;;;;;;1.27;59.41;99055.22;1708162;83;21627;-79
2022/01/15 06:19:53;;;;;;;4.12;2.00;;;;;;;1.27;59.28;99046.11;1683941;83;20964;-78
2022/01/15 06:22:20;;;;;;;2.35;1.17;;;;;;;1.28;59.09;99043.88;1689453;84;21810;-78
2022/01/15 06:24:47;;;;;;;3.35;1.02;;;;;;;1.31;59.05;99050.64;1695340;84;20980;-79
2022/01/15 06:27:15;;;;;;;3.42;1.22;;;;;;;1.33;58.93;99052.20;1695178;83;21016;-78
2022/01/15 06:29:41;;;;;;;3.25;1.52;;;;;;;1.37;58.93;99051.57;1697511;84;21482;-79
2022/01/15 06:32:08;;;;;;;2.47;1.07;;;;;;;1.38;59.02;99055.84;1695369;84;21466;-78
2022/01/15 06:34:35;;;;;;;2.85;1.60;;;;;;;1.38;59.03;99060.58;1690008;84;21922;-76
2022/01/15 06:37:01;;;;;;;3.22;1.30;;;;;;;1.40;59.05;99059.17;1669103;84;21555;-76
2022/01/15 06:39:27;;;;;;;3.33;1.17;;;;;;;1.39;58.94;99063.55;1683050;84;21048;-78
2022/01/15 06:41:54;;;;;;;1.30;0.80;;;;;;;1.40;59.01;99059.17;1687555;84;21012;-78
2022/01/15 06:44:21;;;;;;;2.40;0.70;;;;;;;1.41;58.73;99060.38;1690120;84;21447;-78
2022/01/15 06:46:47;;;;;;;2.50;0.98;;;;;;;1.40;57.68;99062.61;1696153;84;22435;-78
2022/01/15 06:49:14;;;;;;;2.50;1.10;;;;;;;1.47;58.02;99069.57;1702365;83;20971;-78
2022/01/15 06:51:40;;;;;;;5.17;1.27;;;;;;;1.49;57.77;99072.08;1680316;84;20996;-77
2022/01/15 06:54:06;;;;;;;6.12;1.40;;;;;;;1.51;57.81;99078.84;1703163;83;21035;-78
2022/01/15 06:56:35;;;;;;;4.83;1.70;;;;;;;1.52;57.92;99077.08;1687247;85;21561;-78
2022/01/15 06:59:02;;;;;;;3.98;1.40;;;;;;;1.53;58.06;99084.78;1686790;84;21857;-79
2022/01/15 07:01:28;;;;;;;3.33;1.05;;;;;;;1.52;58.25;99083.11;1679548;84;21060;-79
2022/01/15 07:03:55;;;;;;;4.65;1.60;;;;;;;1.52;58.30;99092.22;1685185;83;21118;-79
2022/01/15 07:06:21;;;;;;;5.50;1.25;;;;;;;1.52;58.43;99093.52;1680469;84;21059;-79
2022/01/15 07:08:48;;;;;;;3.77;1.30;;;;;;;1.52;58.41;99090.08;1700024;84;21035;-79
2022/01/15 07:11:14;;;;;;;4.08;1.25;;;;;;;1.53;58.52;99094.35;1698976;84;21853;-77
2022/01/15 07:13:41;;;;;;;5.20;1.40;;;;;;;1.52;58.57;99094.82;1691637;84;20935;-78
2022/01/15 07:16:08;;;;;;;4.10;1.17;;;;;;;1.52;58.56;99101.33;1688486;84;21099;-78
2022/01/15 07:18:34;;;;;;;3.35;1.30;;;;;;;1.54;58.54;99115.07;1699945;84;20997;-78
2022/01/15 07:21:02;;;;;;;3.45;1.20;;;;;;;1.54;58.49;99104.66;1700786;83;20941;-79
2022/01/15 07:23:31;;;;;;;6.30;1.32;;;;;;;1.57;58.59;99104.49;1700070;84;21853;-79
2022/01/15 07:25:57;;;;;;;3.08;0.90;;;;;;;1.59;58.36;99114.33;1677898;84;21521;-78
2022/01/15 07:28:25;;;;;;;4.33;1.37;;;;;;;1.59;57.87;99100.02;1696729;84;21486;-78
2022/01/15 07:30:52;;;;;;;2.98;1.10;;;;;;;1.65;58.03;99106.15;1692488;84;21453;-76
2022/01/15 07:33:18;;;;;;;3.47;1.22;;;;;;;1.68;57.98;99116.36;1706941;83;21023;-78
2022/01/15 07:35:45;;;;;;;2.98;1.30;;;;;;;1.71;57.62;99121.36;1689056;84;21841;-76
2022/01/15 07:38:14;;;;;;;4.03;1.00;;;;;;;1.75;57.41;99126.39;1696674;84;20979;-76
2022/01/15 07:40:41;;;;;;;4.37;1.25;;;;;;;1.79;57.35;99127.86;1684354;84;21008;-76
2022/01/15 07:43:07;;;;;;;2.83;1.20;;;;;;;1.82;57.25;99131.56;1689729;84;21054;-74
2022/01/15 07:45:34;;;;;;;4.97;1.40;;;;;;;1.85;57.00;99124.87;1703727;84;21075;-73
2022/01/15 07:48:00;;;;;;;3.30;1.35;;;;;;;1.88;56.88;99128.58;1696737;84;21814;-72
2022/01/15 07:50:27;;;;;;;2.80;1.05;;;;;;;1.91;56.68;99129.67;1707408;84;21008;-73
2022/01/15 07:52:54;;;;;;;2.40;1.10;;;;;;;1.96;56.30;99120.65;1696321;84;21443;-72
2022/01/15 07:55:22;;;;;;;4.42;0.95;;;;;;;2.01;55.97;99135.50;1684819;85;21027;-71
2022/01/15 07:57:49;;;;;;;3.80;1.22;;;;;;;2.07;55.85;99126.47;1691585;84;21494;-72
2022/01/15 08:00:16;;;;;;;10.95;4.55;;;;;;;2.12;55.70;99118.34;1682761;84;21861;-74
2022/01/15 08:02:43;;;;;;;3.77;2.20;;;;;;;2.15;55.51;99129.42;1690553;84;20995;-74
2022/01/15 08:05:10;;;;;;;1.87;0.80;;;;;;;2.18;54.40;99135.72;1696925;84;21063;-75
2022/01/15 08:07:40;;;;;;;1.98;0.80;;;;;;;2.22;54.32;99116.81;1690411;84;21553;-74
2022/01/15 08:10:08;;;;;;;2.27;0.82;;;;;;;2.26;54.00;99125.64;1684329;84;20970;-71
2022/01/15 08:12:36;;;;;;;2.90;1.05;;;;;;;2.31;53.90;99126.63;1700239;84;21700;-73
2022/01/15 08:15:04;;;;;;;2.60;0.82;;;;;;;2.35;53.70;99131.20;1683133;84;20976;-73
2022/01/15 08:17:33;;;;;;;2.02;0.80;;;;;;;2.41;54.08;99133.38;1684676;84;21498;-72
2022/01/15 08:19:59;;;;;;;3.05;0.80;;;;;;;2.42;53.63;99131.17;1696009;84;21016;-71
2022/01/15 08:22:25;;;;;;;2.40;0.80;;;;;;;2.46;53.49;99143.05;1698510;84;21063;-69
2022/01/15 08:24:52;;;;;;;2.35;0.65;;;;;;;2.50;53.21;99145.34;1697649;83;21805;-73
2022/01/15 08:27:18;;;;;;;1.45;0.62;;;;;;;2.51;52.80;99141.83;1669571;84;21039;-73
2022/01/15 08:29:44;;;;;;;3.17;0.80;;;;;;;2.55;52.91;99151.56;1695512;83;20975;-73
2022/01/15 08:32:11;;;;;;;2.17;0.60;;;;;;;2.56;52.31;99132.38;1696044;83;20996;-72
2022/01/15 08:34:38;;;;;;;2.10;0.90;;;;;;;2.43;51.92;99153.22;1699747;84;21331;-72
2022/01/15 08:37:04;;;;;;;2.77;0.50;;;;;;;2.53;52.17;99156.05;1699203;84;22829;-72
2022/01/15 08:39:31;;;;;;;1.75;0.70;;;;;;;2.65;52.02;99168.73;1688428;84;21075;-73
2022/01/15 08:41:58;;;;;;;3.08;0.88;;;;;;;2.69;51.75;99161.07;1691890;84;21052;-72
2022/01/15 08:44:25;;;;;;;1.30;0.60;;;;;;;2.71;51.76;99157.45;1691952;84;21020;-72
2022/01/15 08:46:52;;;;;;;3.17;0.80;;;;;;;2.73;51.28;99164.69;1690996;84;21004;-72
2022/01/15 08:49:19;;;;;;;3.70;1.37;;;;;;;2.75;51.31;99174.55;1698450;83;21828;-71
2022/01/15 08:51:45;;;;;;;4.30;2.30;;;;;;;2.78;51.44;99174.33;1681680;84;21495;-73
2022/01/15 08:54:12;;;;;;;3.20;1.60;;;;;;;2.78;51.42;99171.72;1683605;84;21049;-73
2022/01/15 08:56:39;;;;;;;3.15;1.40;;;;;;;2.79;51.27;99169.48;1688300;83;21127;-75
2022/01/15 08:59:05;;;;;;;6.10;3.85;;;;;;;2.81;51.60;99168.09;1663520;84;21162;-76
2022/01/15 09:01:31;;;;;;;28.92;17.85;;;;;;;2.69;51.26;99164.98;1690126;84;22200;-75
2022/01/15 09:03:58;;;;;;;22.70;11.08;;;;;;;2.75;51.20;99169.80;1687218;83;21103;-73
2022/01/15 09:06:25;;;;;;;25.10;14.95;;;;;;;2.87;51.01;99164.59;1692061;84;21005;-71
2022/01/15 09:08:52;;;;;;;12.73;6.95;;;;;;;2.91;51.13;99179.58;1691800;84;21027;-74
2022/01/15 09:11:18;;;;;;;29.60;16.77;;;;;;;2.94;51.16;99178.53;1691529;84;21023;-73
2022/01/15 09:13:48;;;;;;;27.02;16.95;;;;;;;2.92;50.95;99180.42;1699171;83;40748;-71
2022/01/15 09:16:15;;;;;;;72.67;41.15;;;;;;;2.92;50.84;99172.59;1686160;84;20972;-71
2022/01/15 09:18:41;;;;;;;47.15;26.42;;;;;;;2.91;51.21;99190.02;1689147;84;21064;-71
2022/01/15 09:21:08;;;;;;;20.05;12.43;;;;;;;2.90;51.09;99181.00;1688598;85;21040;-74
2022/01/15 09:23:36;;;;;;;47.90;26.68;;;;;;;2.91;51.13;99183.97;1699752;83;21037;-73
2022/01/15 09:26:02;;;;;;;25.27;15.43;;;;;;;2.90;51.17;99182.30;1689722;84;21744;-74
2022/01/15 09:31:16;;;;;;;6.97;3.30;;;;;;;2.89;51.70;99186.66;1681419;84;20971;-73
2022/01/15 09:33:42;;;;;;;20.68;11.68;;;;;;;2.86;52.12;99190.77;1693258;83;21028;-77
2022/01/15 09:36:08;;;;;;;5.00;2.70;;;;;;;2.84;52.47;99183.53;1690481;84;21118;-77
2022/01/15 09:38:35;;;;;;;16.23;9.28;;;;;;;2.82;52.91;99181.03;1685452;84;22148;-75
2022/01/15 09:41:01;;;;;;;6.10;2.85;;;;;;;2.81;53.24;99184.58;1682754;84;21130;-76
2022/01/15 09:43:28;;;;;;;6.67;2.50;;;;;;;2.80;53.55;99184.22;1692006;84;21071;-76
2022/01/15 09:45:54;;;;;;;1.92;1.10;;;;;;;2.79;53.81;99181.68;1685790;84;20995;-74
2022/01/15 09:48:20;;;;;;;3.10;1.07;;;;;;;2.78;53.88;99187.37;1698117;84;21017;-75
2022/01/15 09:50:47;;;;;;;3.37;1.27;;;;;;;2.78;54.02;99195.19;1610380;84;21491;-74
2022/01/15 09:53:16;;;;;;;4.08;1.47;;;;;;;2.76;54.10;99193.16;1691870;84;21403;-76
2022/01/15 09:55:46;;;;;;;7.17;2.58;;;;;;;2.75;54.12;99178.92;1691470;84;21018;-75
2022/01/15 09:58:13;;;;;;;3.05;1.40;;;;;;;2.74;53.91;99182.47;1689618;84;21447;-77
2022/01/15 10:00:39;;;;;;;2.72;1.15;;;;;;;2.78;54.06;99204.78;1696810;84;20980;-75
2022/01/15 10:03:06;;;;;;;1.75;1.00;;;;;;;2.79;53.97;99178.61;1675360;84;21831;-77
2022/01/15 10:05:33;;;;;;;2.87;0.88;;;;;;;2.79;53.01;99192.95;1689094;84;21408;-75
2022/01/15 10:08:09;;;;;;;7.80;5.80;;;;;;;2.87;52.83;99195.05;1699722;84;21519;-76
2022/01/15 10:10:43;;;;;;;2.90;0.88;;;;;;;2.92;52.77;99202.12;1670647;84;20973;-76
2022/01/15 10:13:17;;;;;;;2.05;1.10;;;;;;;2.95;52.48;99190.16;1689973;83;21036;-72
2022/01/15 10:16:03;;;;;;;3.17;1.05;;;;;;;2.98;52.71;99189.11;1689368;83;20969;-73
2022/01/15 10:18:32;;;;;;;2.80;0.70;;;;;;;2.99;52.79;99196.86;1689803;84;20897;-75
2022/01/15 10:21:19;;;;;;;2.37;0.90;;;;;;;3.02;52.66;99194.52;1691316;84;21068;-77
2022/01/15 10:23:53;;;;;;;4.65;2.58;;;;;;;3.02;52.69;99198.42;1667991;84;21089;-75
2022/01/15 10:26:24;;;;;;;5.55;3.25;;;;;;;3.02;52.73;99208.39;1631201;84;21023;-72
2022/01/15 10:29:00;;;;;;;8.23;3.33;;;;;;;3.00;53.08;99199.84;1673013;84;22804;-75
2022/01/15 10:31:31;;;;;;;7.35;3.52;;;;;;;3.01;53.24;99194.98;1673752;84;20968;-75
2022/01/15 10:33:59;;;;;;;8.33;3.87;;;;;;;3.01;53.33;99206.72;1677105;83;21078;-78
2022/01/15 10:36:32;;;;;;;6.92;2.95;;;;;;;3.01;53.71;99210.63;1669030;84;21032;-77
2022/01/15 10:39:18;;;;;;;7.37;1.55;;;;;;;3.01;54.02;99213.23;1693049;83;21610;-77
2022/01/15 10:41:47;;;;;;;3.95;1.30;;;;;;;2.97;54.26;99209.62;1687047;84;21771;-76
2022/01/15 10:44:35;;;;;;;4.58;1.70;;;;;;;2.98;54.68;99219.95;1660963;84;21083;-77
2022/01/15 10:47:13;;;;;;;3.60;1.70;;;;;;;2.96;54.82;99217.08;1690737;84;20968;-75
2022/01/15 10:49:40;;;;;;;5.17;2.87;;;;;;;2.98;55.01;99219.95;1670270;83;21040;-78
2022/01/15 10:52:15;;;;;;;6.85;2.45;;;;;;;3.00;55.03;99238.13;1684532;84;21044;-76
2022/01/15 10:55:13;;;;;;;3.92;1.60;;;;;;;2.99;55.17;99226.86;1689019;83;21818;-75
2022/01/15 10:57:46;;;;;;;9.65;1.82;;;;;;;2.98;55.36;99234.76;1689028;83;21087;-76
2022/01/15 11:00:26;;;;;;;3.33;1.35;;;;;;;2.98;55.76;99234.76;1691387;84;21031;-75
2022/01/15 11:02:57;;;;;;;3.92;1.10;;;;;;;2.96;55.98;99230.95;1693921;83;21030;-75
2022/01/15 11:05:35;;;;;;;2.85;1.40;;;;;;;2.95;56.07;99231.06;1692357;83;21078;-76
2022/01/15 11:08:11;;;;;;;3.75;1.57;;;;;;;2.94;56.33;99234.14;1680890;83;21458;-75
2022/01/15 11:10:55;;;;;;;5.60;1.70;;;;;;;2.92;56.63;99241.70;1689875;84;21449;-76
2022/01/15 11:13:28;;;;;;;3.85;1.80;;;;;;;2.85;56.70;99234.28;1673695;83;21032;-75
2022/01/15 11:16:00;;;;;;;5.15;2.72;;;;;;;2.84;56.86;99233.91;1705815;82;21046;-78
2022/01/15 11:18:30;;;;;;;4.87;2.87;;;;;;;2.85;57.04;99242.57;1675521;84;21053;-77
2022/01/15 11:21:02;;;;;;;3.87;1.60;;;;;;;2.85;57.20;99237.35;1689606;83;22217;-77
2022/01/15 11:23:31;;;;;;;2.77;1.30;;;;;;;2.83;57.31;99243.98;1687085;83;21062;-77
2022/01/15 11:26:01;;;;;;;2.98;1.10;;;;;;;2.80;57.34;99246.80;1694292;84;21665;-78
2022/01/15 11:28:29;;;;;;;3.15;1.22;;;;;;;2.75;57.62;99248.86;1699291;84;21044;-78
2022/01/15 11:31:04;;;;;;;3.20;1.10;;;;;;;2.74;57.73;99259.39;1699628;84;21391;-77
2022/01/15 11:33:32;;;;;;;2.58;1.27;;;;;;;2.75;57.83;99260.59;1685131;84;21868;-76
2022/01/15 11:35:59;;;;;;;5.03;1.10;;;;;;;2.76;57.74;99254.44;1699315;84;21098;-76
2022/01/15 11:38:43;;;;;;;2.50;1.20;;;;;;;2.79;57.73;99254.69;1698785;84;21505;-74
2022/01/15 11:41:33;;;;;;;3.27;0.90;;;;;;;2.85;57.69;99267.34;1697398;84;21095;-75
2022/01/15 11:44:03;;;;;;;3.95;1.00;;;;;;;2.87;57.45;99257.17;1688391;83;21063;-74
2022/01/15 11:46:52;;;;;;;2.50;0.90;;;;;;;2.90;57.23;99263.98;1711546;83;21871;-74
2022/01/15 11:49:34;;;;;;;2.92;1.00;;;;;;;2.92;56.99;99269.09;1682805;84;21645;-75
2022/01/15 11:52:13;;;;;;;2.20;0.90;;;;;;;2.95;57.16;99264.97;1694004;84;21102;-75
2022/01/15 11:54:55;;;;;;;2.27;0.80;;;;;;;2.95;56.80;99255.84;1697135;84;21016;-75
2022/01/15 11:57:36;;;;;;;2.25;0.95;;;;;;;2.97;56.81;99265.23;1688601;83;21063;-75
2022/01/15 12:00:27;;;;;;;2.15;0.80;;;;;;;3.00;56.80;99277.25;1704003;83;21828;-76
2022/01/15 12:03:07;;;;;;;2.17;0.82;;;;;;;3.01;56.81;99269.80;1708766;82;21089;-75
2022/01/15 12:05:36;;;;;;;3.65;0.80;;;;;;;3.01;56.79;99272.41;1690705;82;21106;-78
2022/01/15 12:08:09;;;;;;;8.08;2.42;;;;;;;3.02;56.66;99281.42;1704519;83;21306;-78